sensor_id;sensor_type;location;lat;lon;timestamp;P1;durP1;ratioP1;P2;durP2;ratioP2
74541;SDS011;63015;45.378;20.360;2024-02-23T00:01:48;30.30;;;13.80;;
74541;SDS011;63015;45.378;20.360;2024-02-23T00:03:48;42.33;;;16.77;;
74541;SDS011;63015;45.378;20.360;2024-02-23T00:05:49;33.72;;;12.70;;
74541;SDS011;63015;45.378;20.360;2024-02-23T00:07:49;29.13;;;13.20;;
74541;SDS011;63015;45.378;20.360;2024-02-23T00:09:50;80.22;;;29.25;;
74541;SDS011;63015;45.378;20.360;2024-02-23T00:11:50;70.82;;;25.98;;
74541;SDS011;63015;45.378;20.360;2024-02-23T00:13:50;45.22;;;19.75;;
74541;SDS011;63015;45.378;20.360;2024-02-23T00:15:51;23.83;;;13.35;;
74541;SDS011;63015;45.378;20.360;2024-02-23T00:17:51;24.63;;;10.88;;
74541;SDS011;63015;45.378;20.360;2024-02-23T00:19:52;20.77;;;10.27;;
74541;SDS011;63015;45.378;20.360;2024-02-23T00:21:53;21.55;;;11.00;;
74541;SDS011;63015;45.378;20.360;2024-02-23T00:23:53;21.85;;;11.07;;
74541;SDS011;63015;45.378;20.360;2024-02-23T00:25:54;19.90;;;9.82;;
74541;SDS011;63015;45.378;20.360;2024-02-23T00:27:54;22.70;;;10.68;;
74541;SDS011;63015;45.378;20.360;2024-02-23T00:29:55;21.45;;;11.07;;
74541;SDS011;63015;45.378;20.360;2024-02-23T00:31:55;21.55;;;10.85;;
74541;SDS011;63015;45.378;20.360;2024-02-23T00:33:56;20.67;;;10.95;;
74541;SDS011;63015;45.378;20.360;2024-02-23T00:35:56;22.33;;;11.02;;
74541;SDS011;63015;45.378;20.360;2024-02-23T00:37:57;19.95;;;10.35;;
74541;SDS011;63015;45.378;20.360;2024-02-23T00:39:57;23.63;;;11.02;;
74541;SDS011;63015;45.378;20.360;2024-02-23T00:41:58;21.98;;;10.77;;
74541;SDS011;63015;45.378;20.360;2024-02-23T00:43:59;23.40;;;11.27;;
74541;SDS011;63015;45.378;20.360;2024-02-23T00:45:59;26.17;;;12.00;;
74541;SDS011;63015;45.378;20.360;2024-02-23T00:47:59;26.48;;;12.52;;
74541;SDS011;63015;45.378;20.360;2024-02-23T00:50:00;25.63;;;11.40;;
74541;SDS011;63015;45.378;20.360;2024-02-23T00:52:02;19.88;;;10.93;;
74541;SDS011;63015;45.378;20.360;2024-02-23T00:54:02;19.85;;;10.80;;
74541;SDS011;63015;45.378;20.360;2024-02-23T00:56:03;19.58;;;10.50;;
74541;SDS011;63015;45.378;20.360;2024-02-23T00:58:03;21.80;;;10.93;;
74541;SDS011;63015;45.378;20.360;2024-02-23T01:00:04;24.17;;;11.30;;
74541;SDS011;63015;45.378;20.360;2024-02-23T01:02:05;23.05;;;11.57;;
74541;SDS011;63015;45.378;20.360;2024-02-23T01:04:05;22.65;;;10.88;;
74541;SDS011;63015;45.378;20.360;2024-02-23T01:06:06;20.65;;;10.20;;
74541;SDS011;63015;45.378;20.360;2024-02-23T01:08:06;23.73;;;10.52;;
74541;SDS011;63015;45.378;20.360;2024-02-23T01:10:07;22.92;;;10.27;;
74541;SDS011;63015;45.378;20.360;2024-02-23T01:12:07;19.08;;;9.65;;
74541;SDS011;63015;45.378;20.360;2024-02-23T01:14:09;17.92;;;8.93;;
74541;SDS011;63015;45.378;20.360;2024-02-23T01:16:09;19.52;;;8.52;;
74541;SDS011;63015;45.378;20.360;2024-02-23T01:18:10;15.25;;;8.32;;
74541;SDS011;63015;45.378;20.360;2024-02-23T01:20:10;16.95;;;8.65;;
74541;SDS011;63015;45.378;20.360;2024-02-23T01:22:11;16.08;;;8.48;;
74541;SDS011;63015;45.378;20.360;2024-02-23T01:24:11;17.30;;;8.60;;
74541;SDS011;63015;45.378;20.360;2024-02-23T01:26:12;17.90;;;8.88;;
74541;SDS011;63015;45.378;20.360;2024-02-23T01:28:13;16.85;;;8.40;;
74541;SDS011;63015;45.378;20.360;2024-02-23T01:30:13;19.50;;;8.15;;
74541;SDS011;63015;45.378;20.360;2024-02-23T01:32:14;15.63;;;8.32;;
74541;SDS011;63015;45.378;20.360;2024-02-23T01:34:14;16.90;;;8.57;;
74541;SDS011;63015;45.378;20.360;2024-02-23T01:36:15;16.67;;;8.43;;
74541;SDS011;63015;45.378;20.360;2024-02-23T01:38:15;15.07;;;8.25;;
74541;SDS011;63015;45.378;20.360;2024-02-23T01:40:20;13.85;;;7.38;;
74541;SDS011;63015;45.378;20.360;2024-02-23T01:42:21;15.93;;;8.20;;
74541;SDS011;63015;45.378;20.360;2024-02-23T01:44:22;17.27;;;8.10;;
74541;SDS011;63015;45.378;20.360;2024-02-23T01:46:22;18.90;;;8.05;;
74541;SDS011;63015;45.378;20.360;2024-02-23T01:48:23;15.88;;;7.93;;
74541;SDS011;63015;45.378;20.360;2024-02-23T01:50:24;18.08;;;8.73;;
74541;SDS011;63015;45.378;20.360;2024-02-23T01:52:26;15.02;;;8.55;;
74541;SDS011;63015;45.378;20.360;2024-02-23T01:54:26;14.93;;;8.27;;
74541;SDS011;63015;45.378;20.360;2024-02-23T01:56:28;15.95;;;8.30;;
74541;SDS011;63015;45.378;20.360;2024-02-23T01:58:29;15.60;;;7.88;;
74541;SDS011;63015;45.378;20.360;2024-02-23T02:00:31;15.73;;;8.25;;
74541;SDS011;63015;45.378;20.360;2024-02-23T02:02:32;15.48;;;8.27;;
74541;SDS011;63015;45.378;20.360;2024-02-23T02:04:33;14.95;;;8.90;;
74541;SDS011;63015;45.378;20.360;2024-02-23T02:06:33;14.40;;;7.85;;
74541;SDS011;63015;45.378;20.360;2024-02-23T02:08:34;16.92;;;8.95;;
74541;SDS011;63015;45.378;20.360;2024-02-23T02:10:34;15.50;;;8.18;;
74541;SDS011;63015;45.378;20.360;2024-02-23T02:12:35;15.48;;;9.15;;
74541;SDS011;63015;45.378;20.360;2024-02-23T02:14:36;14.10;;;7.50;;
74541;SDS011;63015;45.378;20.360;2024-02-23T02:16:36;14.25;;;7.70;;
74541;SDS011;63015;45.378;20.360;2024-02-23T02:18:37;19.48;;;7.90;;
74541;SDS011;63015;45.378;20.360;2024-02-23T02:20:37;15.52;;;7.50;;
74541;SDS011;63015;45.378;20.360;2024-02-23T02:22:50;12.50;;;7.15;;
74541;SDS011;63015;45.378;20.360;2024-02-23T02:24:51;15.40;;;7.45;;
74541;SDS011;63015;45.378;20.360;2024-02-23T02:26:51;14.30;;;7.45;;
74541;SDS011;63015;45.378;20.360;2024-02-23T02:28:51;16.45;;;8.25;;
74541;SDS011;63015;45.378;20.360;2024-02-23T02:30:52;16.50;;;8.57;;
74541;SDS011;63015;45.378;20.360;2024-02-23T02:32:53;14.07;;;8.00;;
74541;SDS011;63015;45.378;20.360;2024-02-23T02:34:53;14.00;;;7.43;;
74541;SDS011;63015;45.378;20.360;2024-02-23T02:36:54;12.50;;;6.85;;
74541;SDS011;63015;45.378;20.360;2024-02-23T02:38:54;14.68;;;6.30;;
74541;SDS011;63015;45.378;20.360;2024-02-23T02:40:55;11.25;;;6.18;;
74541;SDS011;63015;45.378;20.360;2024-02-23T02:42:57;12.82;;;7.05;;
74541;SDS011;63015;45.378;20.360;2024-02-23T02:44:58;13.35;;;6.28;;
74541;SDS011;63015;45.378;20.360;2024-02-23T02:46:58;14.52;;;7.25;;
74541;SDS011;63015;45.378;20.360;2024-02-23T02:48:59;11.98;;;6.28;;
74541;SDS011;63015;45.378;20.360;2024-02-23T02:50:59;12.23;;;5.97;;
74541;SDS011;63015;45.378;20.360;2024-02-23T02:53:00;12.48;;;6.65;;
74541;SDS011;63015;45.378;20.360;2024-02-23T02:55:00;11.48;;;6.50;;
74541;SDS011;63015;45.378;20.360;2024-02-23T02:57:01;13.25;;;6.93;;
74541;SDS011;63015;45.378;20.360;2024-02-23T02:59:01;13.57;;;6.10;;
74541;SDS011;63015;45.378;20.360;2024-02-23T03:01:02;13.45;;;6.18;;
74541;SDS011;63015;45.378;20.360;2024-02-23T03:03:02;15.30;;;6.55;;
74541;SDS011;63015;45.378;20.360;2024-02-23T03:05:03;12.35;;;5.95;;
74541;SDS011;63015;45.378;20.360;2024-02-23T03:07:04;12.00;;;5.60;;
74541;SDS011;63015;45.378;20.360;2024-02-23T03:09:04;11.07;;;5.70;;
74541;SDS011;63015;45.378;20.360;2024-02-23T03:11:05;12.35;;;6.20;;
74541;SDS011;63015;45.378;20.360;2024-02-23T03:13:05;10.35;;;5.70;;
74541;SDS011;63015;45.378;20.360;2024-02-23T03:15:06;16.08;;;6.75;;
74541;SDS011;63015;45.378;20.360;2024-02-23T03:17:07;10.93;;;5.65;;
74541;SDS011;63015;45.378;20.360;2024-02-23T03:19:09;11.10;;;5.45;;
74541;SDS011;63015;45.378;20.360;2024-02-23T03:21:09;11.15;;;5.57;;
74541;SDS011;63015;45.378;20.360;2024-02-23T03:23:10;12.02;;;5.40;;
74541;SDS011;63015;45.378;20.360;2024-02-23T03:25:11;10.25;;;5.38;;
74541;SDS011;63015;45.378;20.360;2024-02-23T03:27:11;10.50;;;5.13;;
74541;SDS011;63015;45.378;20.360;2024-02-23T03:29:12;10.85;;;5.40;;
74541;SDS011;63015;45.378;20.360;2024-02-23T03:31:12;10.70;;;5.05;;
74541;SDS011;63015;45.378;20.360;2024-02-23T03:33:13;9.60;;;5.03;;
74541;SDS011;63015;45.378;20.360;2024-02-23T03:35:13;10.43;;;5.13;;
74541;SDS011;63015;45.378;20.360;2024-02-23T03:37:14;9.57;;;4.93;;
74541;SDS011;63015;45.378;20.360;2024-02-23T03:39:14;9.65;;;5.13;;
74541;SDS011;63015;45.378;20.360;2024-02-23T03:41:15;10.50;;;5.10;;
74541;SDS011;63015;45.378;20.360;2024-02-23T03:43:15;10.77;;;4.85;;
74541;SDS011;63015;45.378;20.360;2024-02-23T03:45:16;9.00;;;4.72;;
74541;SDS011;63015;45.378;20.360;2024-02-23T03:47:16;9.65;;;4.70;;
74541;SDS011;63015;45.378;20.360;2024-02-23T03:49:17;8.65;;;4.78;;
74541;SDS011;63015;45.378;20.360;2024-02-23T03:51:17;10.38;;;4.43;;
74541;SDS011;63015;45.378;20.360;2024-02-23T03:53:18;9.50;;;4.80;;
74541;SDS011;63015;45.378;20.360;2024-02-23T03:55:18;11.85;;;4.68;;
74541;SDS011;63015;45.378;20.360;2024-02-23T03:57:19;7.97;;;4.50;;
74541;SDS011;63015;45.378;20.360;2024-02-23T03:59:19;9.20;;;4.68;;
74541;SDS011;63015;45.378;20.360;2024-02-23T04:01:20;8.45;;;4.18;;
74541;SDS011;63015;45.378;20.360;2024-02-23T04:03:20;9.18;;;4.32;;
74541;SDS011;63015;45.378;20.360;2024-02-23T04:05:21;10.80;;;4.72;;
74541;SDS011;63015;45.378;20.360;2024-02-23T04:07:21;9.60;;;4.47;;
74541;SDS011;63015;45.378;20.360;2024-02-23T04:09:22;10.40;;;5.03;;
74541;SDS011;63015;45.378;20.360;2024-02-23T04:11:23;8.55;;;4.25;;
74541;SDS011;63015;45.378;20.360;2024-02-23T04:13:23;8.52;;;4.50;;
74541;SDS011;63015;45.378;20.360;2024-02-23T04:15:24;7.95;;;4.00;;
74541;SDS011;63015;45.378;20.360;2024-02-23T04:17:24;9.23;;;4.13;;
74541;SDS011;63015;45.378;20.360;2024-02-23T04:19:25;6.97;;;4.03;;
74541;SDS011;63015;45.378;20.360;2024-02-23T04:21:25;7.50;;;3.80;;
74541;SDS011;63015;45.378;20.360;2024-02-23T04:23:26;7.95;;;4.03;;
74541;SDS011;63015;45.378;20.360;2024-02-23T04:25:26;9.98;;;4.13;;
74541;SDS011;63015;45.378;20.360;2024-02-23T04:27:27;9.00;;;4.32;;
74541;SDS011;63015;45.378;20.360;2024-02-23T04:29:28;7.82;;;3.97;;
74541;SDS011;63015;45.378;20.360;2024-02-23T04:31:28;9.50;;;3.75;;
74541;SDS011;63015;45.378;20.360;2024-02-23T04:33:28;7.47;;;3.65;;
74541;SDS011;63015;45.378;20.360;2024-02-23T04:35:29;7.53;;;3.85;;
74541;SDS011;63015;45.378;20.360;2024-02-23T04:37:29;10.40;;;3.92;;
74541;SDS011;63015;45.378;20.360;2024-02-23T04:39:30;8.30;;;3.88;;
74541;SDS011;63015;45.378;20.360;2024-02-23T04:41:30;7.68;;;3.55;;
74541;SDS011;63015;45.378;20.360;2024-02-23T04:43:31;7.75;;;3.38;;
74541;SDS011;63015;45.378;20.360;2024-02-23T04:45:32;11.95;;;4.50;;
74541;SDS011;63015;45.378;20.360;2024-02-23T04:47:32;9.38;;;4.20;;
74541;SDS011;63015;45.378;20.360;2024-02-23T04:49:33;9.20;;;4.03;;
74541;SDS011;63015;45.378;20.360;2024-02-23T04:51:33;9.15;;;3.88;;
74541;SDS011;63015;45.378;20.360;2024-02-23T04:53:36;7.13;;;3.80;;
74541;SDS011;63015;45.378;20.360;2024-02-23T04:57:37;8.82;;;4.13;;
74541;SDS011;63015;45.378;20.360;2024-02-23T04:59:38;10.50;;;3.97;;
74541;SDS011;63015;45.378;20.360;2024-02-23T05:01:39;8.93;;;4.15;;
74541;SDS011;63015;45.378;20.360;2024-02-23T05:03:40;9.10;;;3.83;;
74541;SDS011;63015;45.378;20.360;2024-02-23T05:05:40;7.47;;;3.75;;
74541;SDS011;63015;45.378;20.360;2024-02-23T05:07:41;8.63;;;3.67;;
74541;SDS011;63015;45.378;20.360;2024-02-23T05:09:41;6.82;;;3.63;;
74541;SDS011;63015;45.378;20.360;2024-02-23T05:11:42;7.45;;;3.65;;
74541;SDS011;63015;45.378;20.360;2024-02-23T05:13:43;9.30;;;4.05;;
74541;SDS011;63015;45.378;20.360;2024-02-23T05:15:43;8.98;;;3.80;;
74541;SDS011;63015;45.378;20.360;2024-02-23T05:17:44;7.95;;;3.45;;
74541;SDS011;63015;45.378;20.360;2024-02-23T05:19:44;8.52;;;4.07;;
74541;SDS011;63015;45.378;20.360;2024-02-23T05:21:46;8.38;;;3.83;;
74541;SDS011;63015;45.378;20.360;2024-02-23T05:23:47;7.75;;;3.42;;
74541;SDS011;63015;45.378;20.360;2024-02-23T05:25:47;8.10;;;4.20;;
74541;SDS011;63015;45.378;20.360;2024-02-23T05:27:48;8.25;;;4.00;;
74541;SDS011;63015;45.378;20.360;2024-02-23T05:29:48;8.23;;;4.18;;
74541;SDS011;63015;45.378;20.360;2024-02-23T05:31:52;9.93;;;4.10;;
74541;SDS011;63015;45.378;20.360;2024-02-23T05:33:53;8.45;;;3.92;;
74541;SDS011;63015;45.378;20.360;2024-02-23T05:35:53;9.80;;;4.47;;
74541;SDS011;63015;45.378;20.360;2024-02-23T05:37:53;8.10;;;3.92;;
74541;SDS011;63015;45.378;20.360;2024-02-23T05:39:55;8.02;;;3.90;;
74541;SDS011;63015;45.378;20.360;2024-02-23T05:41:55;8.27;;;4.28;;
74541;SDS011;63015;45.378;20.360;2024-02-23T05:43:57;9.00;;;4.18;;
74541;SDS011;63015;45.378;20.360;2024-02-23T05:45:57;8.50;;;4.10;;
74541;SDS011;63015;45.378;20.360;2024-02-23T05:47:58;7.57;;;3.95;;
74541;SDS011;63015;45.378;20.360;2024-02-23T05:49:59;7.57;;;3.60;;
74541;SDS011;63015;45.378;20.360;2024-02-23T05:51:59;9.05;;;3.80;;
74541;SDS011;63015;45.378;20.360;2024-02-23T05:54:00;8.40;;;3.70;;
74541;SDS011;63015;45.378;20.360;2024-02-23T05:56:00;7.05;;;3.85;;
74541;SDS011;63015;45.378;20.360;2024-02-23T05:58:01;9.60;;;3.90;;
74541;SDS011;63015;45.378;20.360;2024-02-23T06:00:01;8.65;;;3.90;;
74541;SDS011;63015;45.378;20.360;2024-02-23T06:02:11;7.32;;;3.38;;
74541;SDS011;63015;45.378;20.360;2024-02-23T06:04:12;8.82;;;3.88;;
74541;SDS011;63015;45.378;20.360;2024-02-23T06:06:12;7.57;;;3.13;;
74541;SDS011;63015;45.378;20.360;2024-02-23T06:08:13;9.48;;;3.85;;
74541;SDS011;63015;45.378;20.360;2024-02-23T06:10:13;7.82;;;3.47;;
74541;SDS011;63015;45.378;20.360;2024-02-23T06:12:14;7.88;;;3.90;;
74541;SDS011;63015;45.378;20.360;2024-02-23T06:14:14;8.75;;;3.95;;
74541;SDS011;63015;45.378;20.360;2024-02-23T06:16:15;7.18;;;3.60;;
74541;SDS011;63015;45.378;20.360;2024-02-23T06:18:15;6.78;;;3.45;;
74541;SDS011;63015;45.378;20.360;2024-02-23T06:20:16;9.70;;;4.10;;
74541;SDS011;63015;45.378;20.360;2024-02-23T06:22:17;7.30;;;3.92;;
74541;SDS011;63015;45.378;20.360;2024-02-23T06:24:21;6.95;;;3.55;;
74541;SDS011;63015;45.378;20.360;2024-02-23T06:26:21;8.65;;;3.83;;
74541;SDS011;63015;45.378;20.360;2024-02-23T06:28:22;12.52;;;5.85;;
74541;SDS011;63015;45.378;20.360;2024-02-23T06:30:22;16.90;;;7.28;;
74541;SDS011;63015;45.378;20.360;2024-02-23T06:32:23;15.15;;;6.45;;
74541;SDS011;63015;45.378;20.360;2024-02-23T06:34:23;11.38;;;5.40;;
74541;SDS011;63015;45.378;20.360;2024-02-23T06:36:24;12.43;;;4.63;;
74541;SDS011;63015;45.378;20.360;2024-02-23T06:38:24;9.43;;;4.63;;
74541;SDS011;63015;45.378;20.360;2024-02-23T06:40:25;9.40;;;4.78;;
74541;SDS011;63015;45.378;20.360;2024-02-23T06:42:25;13.35;;;5.90;;
74541;SDS011;63015;45.378;20.360;2024-02-23T06:44:26;13.30;;;5.75;;
74541;SDS011;63015;45.378;20.360;2024-02-23T06:46:26;10.35;;;4.88;;
74541;SDS011;63015;45.378;20.360;2024-02-23T06:48:27;10.93;;;4.95;;
74541;SDS011;63015;45.378;20.360;2024-02-23T06:50:27;10.77;;;5.18;;
74541;SDS011;63015;45.378;20.360;2024-02-23T06:52:28;11.38;;;4.68;;
74541;SDS011;63015;45.378;20.360;2024-02-23T06:54:28;9.90;;;4.22;;
74541;SDS011;63015;45.378;20.360;2024-02-23T06:56:29;9.93;;;4.75;;
74541;SDS011;63015;45.378;20.360;2024-02-23T06:58:29;8.45;;;4.07;;
74541;SDS011;63015;45.378;20.360;2024-02-23T07:00:30;9.07;;;4.43;;
74541;SDS011;63015;45.378;20.360;2024-02-23T07:02:30;9.90;;;3.92;;
74541;SDS011;63015;45.378;20.360;2024-02-23T07:04:34;10.93;;;3.88;;
74541;SDS011;63015;45.378;20.360;2024-02-23T07:06:35;8.30;;;4.05;;
74541;SDS011;63015;45.378;20.360;2024-02-23T07:08:36;9.63;;;4.78;;
74541;SDS011;63015;45.378;20.360;2024-02-23T07:10:37;9.25;;;4.43;;
74541;SDS011;63015;45.378;20.360;2024-02-23T07:12:37;10.98;;;4.72;;
74541;SDS011;63015;45.378;20.360;2024-02-23T07:14:38;9.65;;;4.28;;
74541;SDS011;63015;45.378;20.360;2024-02-23T07:16:38;9.25;;;3.50;;
74541;SDS011;63015;45.378;20.360;2024-02-23T07:18:42;9.15;;;3.55;;
74541;SDS011;63015;45.378;20.360;2024-02-23T07:20:42;9.23;;;3.85;;
74541;SDS011;63015;45.378;20.360;2024-02-23T07:22:46;10.98;;;4.00;;
74541;SDS011;63015;45.378;20.360;2024-02-23T07:24:46;9.90;;;4.30;;
74541;SDS011;63015;45.378;20.360;2024-02-23T07:26:47;7.82;;;4.10;;
74541;SDS011;63015;45.378;20.360;2024-02-23T07:28:48;9.70;;;4.43;;
74541;SDS011;63015;45.378;20.360;2024-02-23T07:30:49;8.82;;;4.03;;
74541;SDS011;63015;45.378;20.360;2024-02-23T07:32:49;8.02;;;4.13;;
74541;SDS011;63015;45.378;20.360;2024-02-23T07:34:50;10.00;;;4.82;;
74541;SDS011;63015;45.378;20.360;2024-02-23T07:36:51;11.57;;;4.90;;
74541;SDS011;63015;45.378;20.360;2024-02-23T07:38:52;10.88;;;4.82;;
74541;SDS011;63015;45.378;20.360;2024-02-23T07:40:52;10.65;;;4.80;;
74541;SDS011;63015;45.378;20.360;2024-02-23T07:42:53;9.65;;;4.20;;
74541;SDS011;63015;45.378;20.360;2024-02-23T07:44:53;8.68;;;3.95;;
74541;SDS011;63015;45.378;20.360;2024-02-23T07:46:54;7.28;;;4.10;;
74541;SDS011;63015;45.378;20.360;2024-02-23T07:48:55;8.15;;;4.03;;
74541;SDS011;63015;45.378;20.360;2024-02-23T07:50:56;10.73;;;5.47;;
74541;SDS011;63015;45.378;20.360;2024-02-23T07:52:56;16.50;;;7.72;;
74541;SDS011;63015;45.378;20.360;2024-02-23T07:54:57;16.98;;;7.72;;
74541;SDS011;63015;45.378;20.360;2024-02-23T07:56:57;9.85;;;4.97;;
74541;SDS011;63015;45.378;20.360;2024-02-23T07:58:58;7.68;;;4.07;;
74541;SDS011;63015;45.378;20.360;2024-02-23T08:00:58;7.80;;;3.83;;
74541;SDS011;63015;45.378;20.360;2024-02-23T08:02:58;8.52;;;4.05;;
74541;SDS011;63015;45.378;20.360;2024-02-23T08:05:00;8.45;;;4.40;;
74541;SDS011;63015;45.378;20.360;2024-02-23T08:07:01;9.60;;;4.00;;
74541;SDS011;63015;45.378;20.360;2024-02-23T08:09:01;11.25;;;4.82;;
74541;SDS011;63015;45.378;20.360;2024-02-23T08:11:03;11.32;;;4.80;;
74541;SDS011;63015;45.378;20.360;2024-02-23T08:13:04;12.43;;;5.05;;
74541;SDS011;63015;45.378;20.360;2024-02-23T08:15:04;11.32;;;5.30;;
74541;SDS011;63015;45.378;20.360;2024-02-23T08:17:05;11.07;;;4.78;;
74541;SDS011;63015;45.378;20.360;2024-02-23T08:19:06;9.90;;;5.00;;
74541;SDS011;63015;45.378;20.360;2024-02-23T08:21:06;14.73;;;7.28;;
74541;SDS011;63015;45.378;20.360;2024-02-23T08:23:07;31.73;;;13.77;;
74541;SDS011;63015;45.378;20.360;2024-02-23T08:25:09;20.13;;;9.15;;
74541;SDS011;63015;45.378;20.360;2024-02-23T08:27:09;13.65;;;6.20;;
74541;SDS011;63015;45.378;20.360;2024-02-23T08:29:10;18.02;;;8.48;;
74541;SDS011;63015;45.378;20.360;2024-02-23T08:31:10;14.45;;;6.95;;
74541;SDS011;63015;45.378;20.360;2024-02-23T08:33:11;10.70;;;5.15;;
74541;SDS011;63015;45.378;20.360;2024-02-23T08:35:11;10.02;;;5.13;;
74541;SDS011;63015;45.378;20.360;2024-02-23T08:37:12;9.27;;;4.38;;
74541;SDS011;63015;45.378;20.360;2024-02-23T08:39:13;8.55;;;4.63;;
74541;SDS011;63015;45.378;20.360;2024-02-23T08:41:13;9.10;;;4.65;;
74541;SDS011;63015;45.378;20.360;2024-02-23T08:43:14;15.23;;;5.70;;
74541;SDS011;63015;45.378;20.360;2024-02-23T08:45:15;10.32;;;4.88;;
74541;SDS011;63015;45.378;20.360;2024-02-23T08:47:16;12.68;;;4.75;;
74541;SDS011;63015;45.378;20.360;2024-02-23T08:49:16;12.27;;;4.90;;
74541;SDS011;63015;45.378;20.360;2024-02-23T08:51:17;9.38;;;3.90;;
74541;SDS011;63015;45.378;20.360;2024-02-23T08:53:17;9.00;;;4.28;;
74541;SDS011;63015;45.378;20.360;2024-02-23T08:55:18;11.20;;;4.90;;
74541;SDS011;63015;45.378;20.360;2024-02-23T08:57:18;10.00;;;4.22;;
74541;SDS011;63015;45.378;20.360;2024-02-23T08:59:20;12.23;;;4.78;;
74541;SDS011;63015;45.378;20.360;2024-02-23T09:01:20;13.60;;;5.47;;
74541;SDS011;63015;45.378;20.360;2024-02-23T09:03:21;14.90;;;5.57;;
74541;SDS011;63015;45.378;20.360;2024-02-23T09:05:21;13.02;;;5.07;;
74541;SDS011;63015;45.378;20.360;2024-02-23T09:07:22;11.13;;;5.10;;
74541;SDS011;63015;45.378;20.360;2024-02-23T09:09:22;10.45;;;4.68;;
74541;SDS011;63015;45.378;20.360;2024-02-23T09:11:23;12.65;;;5.20;;
74541;SDS011;63015;45.378;20.360;2024-02-23T09:13:23;13.18;;;5.15;;
74541;SDS011;63015;45.378;20.360;2024-02-23T09:15:24;13.25;;;5.18;;
74541;SDS011;63015;45.378;20.360;2024-02-23T09:17:24;14.57;;;4.88;;
74541;SDS011;63015;45.378;20.360;2024-02-23T09:19:25;8.35;;;4.05;;
74541;SDS011;63015;45.378;20.360;2024-02-23T09:21:26;10.48;;;4.30;;
74541;SDS011;63015;45.378;20.360;2024-02-23T09:23:26;14.88;;;5.18;;
74541;SDS011;63015;45.378;20.360;2024-02-23T09:25:27;10.20;;;4.35;;
74541;SDS011;63015;45.378;20.360;2024-02-23T09:27:27;11.70;;;5.10;;
74541;SDS011;63015;45.378;20.360;2024-02-23T09:29:28;9.68;;;4.55;;
74541;SDS011;63015;45.378;20.360;2024-02-23T09:31:28;12.82;;;5.18;;
74541;SDS011;63015;45.378;20.360;2024-02-23T09:33:30;12.35;;;5.68;;
74541;SDS011;63015;45.378;20.360;2024-02-23T09:35:30;9.57;;;4.90;;
74541;SDS011;63015;45.378;20.360;2024-02-23T09:37:31;11.07;;;4.80;;
74541;SDS011;63015;45.378;20.360;2024-02-23T09:39:31;11.85;;;5.00;;
74541;SDS011;63015;45.378;20.360;2024-02-23T09:41:32;13.05;;;6.45;;
74541;SDS011;63015;45.378;20.360;2024-02-23T09:43:34;11.68;;;5.43;;
74541;SDS011;63015;45.378;20.360;2024-02-23T09:45:34;12.88;;;5.38;;
74541;SDS011;63015;45.378;20.360;2024-02-23T09:47:35;15.88;;;6.32;;
74541;SDS011;63015;45.378;20.360;2024-02-23T09:49:37;20.40;;;6.88;;
74541;SDS011;63015;45.378;20.360;2024-02-23T09:51:39;10.88;;;5.47;;
74541;SDS011;63015;45.378;20.360;2024-02-23T09:53:40;15.68;;;6.22;;
74541;SDS011;63015;45.378;20.360;2024-02-23T09:55:42;26.48;;;8.85;;
74541;SDS011;63015;45.378;20.360;2024-02-23T09:57:45;17.00;;;8.25;;
74541;SDS011;63015;45.378;20.360;2024-02-23T09:59:48;16.42;;;6.93;;
74541;SDS011;63015;45.378;20.360;2024-02-23T10:01:50;22.92;;;8.38;;
74541;SDS011;63015;45.378;20.360;2024-02-23T10:03:54;19.85;;;8.27;;
74541;SDS011;63015;45.378;20.360;2024-02-23T10:05:57;23.95;;;9.05;;
74541;SDS011;63015;45.378;20.360;2024-02-23T10:07:58;14.20;;;5.65;;
74541;SDS011;63015;45.378;20.360;2024-02-23T10:09:58;13.85;;;5.00;;
74541;SDS011;63015;45.378;20.360;2024-02-23T10:11:59;14.77;;;5.68;;
74541;SDS011;63015;45.378;20.360;2024-02-23T10:13:59;18.20;;;7.40;;
74541;SDS011;63015;45.378;20.360;2024-02-23T10:16:00;13.00;;;5.05;;
74541;SDS011;63015;45.378;20.360;2024-02-23T10:18:00;14.65;;;6.72;;
74541;SDS011;63015;45.378;20.360;2024-02-23T10:20:01;9.55;;;4.50;;
74541;SDS011;63015;45.378;20.360;2024-02-23T10:22:04;12.23;;;6.20;;
74541;SDS011;63015;45.378;20.360;2024-02-23T10:24:05;10.93;;;6.10;;
74541;SDS011;63015;45.378;20.360;2024-02-23T10:26:06;12.63;;;5.65;;
74541;SDS011;63015;45.378;20.360;2024-02-23T10:28:07;11.98;;;5.72;;
74541;SDS011;63015;45.378;20.360;2024-02-23T10:30:09;15.52;;;8.32;;
74541;SDS011;63015;45.378;20.360;2024-02-23T10:32:13;18.95;;;9.32;;
74541;SDS011;63015;45.378;20.360;2024-02-23T10:34:15;25.80;;;13.27;;
74541;SDS011;63015;45.378;20.360;2024-02-23T10:36:19;30.48;;;15.35;;
74541;SDS011;63015;45.378;20.360;2024-02-23T10:38:22;27.35;;;14.95;;
74541;SDS011;63015;45.378;20.360;2024-02-23T10:40:23;34.60;;;15.93;;
74541;SDS011;63015;45.378;20.360;2024-02-23T10:42:33;31.73;;;15.23;;
74541;SDS011;63015;45.378;20.360;2024-02-23T10:44:35;23.23;;;10.43;;
74541;SDS011;63015;45.378;20.360;2024-02-23T10:46:37;24.17;;;10.32;;
74541;SDS011;63015;45.378;20.360;2024-02-23T10:48:41;20.58;;;10.07;;
74541;SDS011;63015;45.378;20.360;2024-02-23T10:50:43;22.85;;;10.43;;
74541;SDS011;63015;45.378;20.360;2024-02-23T10:52:44;22.92;;;9.73;;
74541;SDS011;63015;45.378;20.360;2024-02-23T10:54:45;15.75;;;7.72;;
74541;SDS011;63015;45.378;20.360;2024-02-23T10:56:48;15.23;;;8.13;;
74541;SDS011;63015;45.378;20.360;2024-02-23T10:58:50;18.92;;;8.80;;
74541;SDS011;63015;45.378;20.360;2024-02-23T11:00:50;17.52;;;8.25;;
74541;SDS011;63015;45.378;20.360;2024-02-23T11:02:51;18.13;;;8.52;;
74541;SDS011;63015;45.378;20.360;2024-02-23T11:04:54;16.63;;;7.05;;
74541;SDS011;63015;45.378;20.360;2024-02-23T11:06:57;15.07;;;7.40;;
74541;SDS011;63015;45.378;20.360;2024-02-23T11:09:04;25.25;;;11.02;;
74541;SDS011;63015;45.378;20.360;2024-02-23T11:11:10;32.00;;;14.18;;
74541;SDS011;63015;45.378;20.360;2024-02-23T11:13:11;26.17;;;12.63;;
74541;SDS011;63015;45.378;20.360;2024-02-23T11:15:27;23.13;;;11.35;;
74541;SDS011;63015;45.378;20.360;2024-02-23T11:17:29;28.10;;;12.15;;
74541;SDS011;63015;45.378;20.360;2024-02-23T11:19:31;26.05;;;13.43;;
74541;SDS011;63015;45.378;20.360;2024-02-23T11:21:36;26.10;;;10.75;;
74541;SDS011;63015;45.378;20.360;2024-02-23T11:23:45;20.17;;;8.85;;
74541;SDS011;63015;45.378;20.360;2024-02-23T11:28:03;17.75;;;7.80;;
74541;SDS011;63015;45.378;20.360;2024-02-23T11:30:05;22.42;;;8.55;;
74541;SDS011;63015;45.378;20.360;2024-02-23T11:32:17;20.83;;;8.18;;
74541;SDS011;63015;45.378;20.360;2024-02-23T11:34:21;12.63;;;5.90;;
74541;SDS011;63015;45.378;20.360;2024-02-23T11:36:27;20.95;;;8.90;;
74541;SDS011;63015;45.378;20.360;2024-02-23T11:38:28;20.35;;;9.70;;
74541;SDS011;63015;45.378;20.360;2024-02-23T11:40:30;29.50;;;11.32;;
74541;SDS011;63015;45.378;20.360;2024-02-23T11:42:31;17.15;;;8.00;;
74541;SDS011;63015;45.378;20.360;2024-02-23T11:44:33;18.42;;;9.68;;
74541;SDS011;63015;45.378;20.360;2024-02-23T11:46:34;10.82;;;6.20;;
74541;SDS011;63015;45.378;20.360;2024-02-23T11:48:34;9.60;;;4.80;;
74541;SDS011;63015;45.378;20.360;2024-02-23T11:50:35;9.45;;;5.00;;
74541;SDS011;63015;45.378;20.360;2024-02-23T11:52:38;10.95;;;5.00;;
74541;SDS011;63015;45.378;20.360;2024-02-23T11:54:38;10.30;;;5.00;;